Time;durP1;ratioP1;P1;durP2;ratioP2;P2;SDS_P1;SDS_P2;PMS_P1;PMS_P2;Temp;Humidity;BMP_temperature;BMP_pressure;BME280_temperature;BME280_humidity;BME280_pressure;Samples;Min_cycle;Max_cycle;Signal;HPM_P1;HPM_P2
2022/07/14 00:01:46;;;;;;;7.82;3.60;;;;;;;;;;3366268;42;20084;-58
2022/07/14 00:04:12;;;;;;;9.63;4.10;;;;;;;;;;3366430;42;20685;-58
2022/07/14 00:06:38;;;;;;;9.00;4.03;;;;;;;;;;3366795;42;20881;-58
2022/07/14 00:09:04;;;;;;;7.57;4.10;;;;;;;;;;3366432;42;20095;-59
2022/07/14 00:11:30;;;;;;;7.38;4.20;;;;;;;;;;3366571;42;20123;-58
2022/07/14 00:13:58;;;;;;;8.73;3.92;;;;;;;;;;3366529;42;20083;-57
2022/07/14 00:16:25;;;;;;;6.80;3.80;;;;;;;;;;3366469;42;20103;-59
2022/07/14 00:18:51;;;;;;;8.07;4.03;;;;;;;;;;3366440;42;20106;-57
2022/07/14 00:21:17;;;;;;;8.85;3.95;;;;;;;;;;3366366;42;20083;-58
2022/07/14 00:23:44;;;;;;;9.13;3.85;;;;;;;;;;3366613;42;20501;-59
2022/07/14 00:26:11;;;;;;;8.80;3.80;;;;;;;;;;3366809;42;20115;-59
2022/07/14 00:28:37;;;;;;;8.30;3.70;;;;;;;;;;3366619;42;20088;-56
2022/07/14 00:31:07;;;;;;;8.48;4.07;;;;;;;;;;3366788;42;20143;-58
2022/07/14 00:33:33;;;;;;;9.02;4.20;;;;;;;;;;3366472;42;20561;-59
2022/07/14 00:35:59;;;;;;;7.57;3.67;;;;;;;;;;3366590;42;20096;-58
2022/07/14 00:38:25;;;;;;;8.63;4.20;;;;;;;;;;3366594;42;20080;-55
2022/07/14 00:40:51;;;;;;;7.80;3.93;;;;;;;;;;3366335;42;20584;-56
2022/07/14 00:43:17;;;;;;;8.68;4.13;;;;;;;;;;3367599;42;20906;-57
2022/07/14 00:45:43;;;;;;;8.80;4.18;;;;;;;;;;3368281;42;20803;-57
2022/07/14 00:48:09;;;;;;;8.18;4.32;;;;;;;;;;3359471;42;20131;-56
2022/07/14 00:50:37;;;;;;;9.67;4.60;;;;;;;;;;3368537;42;20088;-57
2022/07/14 00:53:07;;;;;;;10.40;4.10;;;;;;;;;;3357372;42;20153;-57
2022/07/14 00:55:33;;;;;;;10.35;4.13;;;;;;;;;;3356891;42;20147;-57
2022/07/14 00:57:59;;;;;;;9.38;3.90;;;;;;;;;;3368617;42;20098;-55
2022/07/14 01:00:25;;;;;;;9.03;4.30;;;;;;;;;;3368227;42;20096;-57
2022/07/14 01:02:52;;;;;;;8.57;4.13;;;;;;;;;;3367865;42;20086;-57
2022/07/14 01:05:18;;;;;;;8.65;4.32;;;;;;;;;;3367969;42;20166;-58
2022/07/14 01:07:44;;;;;;;9.23;4.30;;;;;;;;;;3367892;42;20084;-57
2022/07/14 01:10:11;;;;;;;9.40;4.18;;;;;;;;;;3367920;42;20096;-57
2022/07/14 01:12:37;;;;;;;8.33;4.07;;;;;;;;;;3356301;42;20529;-55
2022/07/14 01:15:04;;;;;;;10.27;4.47;;;;;;;;;;3355463;42;20102;-57
2022/07/14 01:17:31;;;;;;;9.18;4.57;;;;;;;;;;3368189;42;20170;-56
2022/07/14 01:19:57;;;;;;;10.52;4.55;;;;;;;;;;3368652;42;20100;-58
2022/07/14 01:22:23;;;;;;;8.37;4.40;;;;;;;;;;3367922;42;20099;-57
2022/07/14 01:24:49;;;;;;;9.05;4.50;;;;;;;;;;3367760;42;20150;-58
2022/07/14 01:27:15;;;;;;;8.82;4.30;;;;;;;;;;3367470;42;20171;-56
2022/07/14 01:29:41;;;;;;;9.82;4.00;;;;;;;;;;3367635;42;20500;-57
2022/07/14 01:32:06;;;;;;;11.13;4.50;;;;;;;;;;3367980;42;20160;-57
2022/07/14 01:34:32;;;;;;;8.82;4.03;;;;;;;;;;3367610;42;20084;-57
2022/07/14 01:36:58;;;;;;;8.65;4.45;;;;;;;;;;3367534;42;20122;-57
2022/07/14 01:39:24;;;;;;;10.20;4.00;;;;;;;;;;3367519;42;20551;-57
2022/07/14 01:41:50;;;;;;;9.07;4.30;;;;;;;;;;3367342;42;20147;-54
2022/07/14 01:44:16;;;;;;;8.82;4.40;;;;;;;;;;3367330;42;20205;-55
2022/07/14 01:46:42;;;;;;;8.73;4.43;;;;;;;;;;3367649;42;20151;-55
2022/07/14 01:49:08;;;;;;;8.97;4.83;;;;;;;;;;3367678;42;20145;-58
2022/07/14 01:51:34;;;;;;;8.20;4.25;;;;;;;;;;3366826;42;20099;-56
2022/07/14 01:54:01;;;;;;;9.93;4.22;;;;;;;;;;3359538;42;20487;-57
2022/07/14 01:56:27;;;;;;;8.65;4.35;;;;;;;;;;3367129;42;20110;-58
2022/07/14 01:58:53;;;;;;;7.43;4.00;;;;;;;;;;3367238;42;20104;-57
2022/07/14 02:04:03;;;;;;;8.63;3.83;;;;;;;;;;3367625;42;20092;-57
2022/07/14 02:06:29;;;;;;;8.00;4.13;;;;;;;;;;3367375;42;20259;-57
2022/07/14 02:08:56;;;;;;;9.83;4.47;;;;;;;;;;3367320;42;20096;-58
2022/07/14 02:14:06;;;;;;;9.32;4.15;;;;;;;;;;3367187;42;20095;-57
2022/07/14 02:16:32;;;;;;;7.20;3.90;;;;;;;;;;3367153;42;20157;-58
2022/07/14 02:19:01;;;;;;;7.83;4.20;;;;;;;;;;3367309;42;20104;-57
2022/07/14 02:21:28;;;;;;;7.43;3.95;;;;;;;;;;3367234;42;20099;-61
2022/07/14 02:23:54;;;;;;;9.40;4.07;;;;;;;;;;3354568;42;20610;-56
2022/07/14 02:26:20;;;;;;;10.55;4.85;;;;;;;;;;3366827;42;20092;-54
2022/07/14 02:28:46;;;;;;;8.90;4.50;;;;;;;;;;3358160;42;20185;-58
2022/07/14 02:31:12;;;;;;;8.00;3.85;;;;;;;;;;3367077;42;20562;-57
2022/07/14 02:33:38;;;;;;;9.85;4.40;;;;;;;;;;3367284;42;20455;-58
2022/07/14 02:36:04;;;;;;;8.98;4.60;;;;;;;;;;3367442;42;20095;-57
2022/07/14 02:38:30;;;;;;;8.90;4.43;;;;;;;;;;3354330;42;20115;-55
2022/07/14 02:40:56;;;;;;;8.10;4.47;;;;;;;;;;3351653;42;20103;-57
2022/07/14 02:43:23;;;;;;;9.10;4.60;;;;;;;;;;3367435;42;20092;-57
2022/07/14 02:45:49;;;;;;;9.35;4.93;;;;;;;;;;3368221;42;20147;-57
2022/07/14 02:48:15;;;;;;;8.30;4.60;;;;;;;;;;3367130;42;20102;-57
2022/07/14 02:50:41;;;;;;;7.97;4.50;;;;;;;;;;3366880;42;20094;-57
2022/07/14 02:53:07;;;;;;;9.32;4.47;;;;;;;;;;3366893;42;20116;-57
2022/07/14 02:55:36;;;;;;;8.25;4.88;;;;;;;;;;3365251;42;20099;-55
2022/07/14 02:58:04;;;;;;;12.15;4.50;;;;;;;;;;3367106;42;20207;-57
2022/07/14 03:00:30;;;;;;;8.98;4.35;;;;;;;;;;3366701;42;20098;-57
2022/07/14 03:02:57;;;;;;;8.73;4.33;;;;;;;;;;3358190;42;20127;-57
2022/07/14 03:05:23;;;;;;;11.27;4.80;;;;;;;;;;3366739;42;20100;-56
2022/07/14 03:07:49;;;;;;;9.80;5.03;;;;;;;;;;3353158;42;20166;-58
2022/07/14 03:10:15;;;;;;;8.63;4.72;;;;;;;;;;3366248;42;20096;-58
2022/07/14 03:12:42;;;;;;;9.20;5.05;;;;;;;;;;3366519;42;20510;-58
2022/07/14 03:15:08;;;;;;;9.53;4.40;;;;;;;;;;3367392;42;20143;-59
2022/07/14 03:17:34;;;;;;;9.48;4.60;;;;;;;;;;3366949;42;20110;-56
2022/07/14 03:20:00;;;;;;;8.88;4.75;;;;;;;;;;3366429;42;20190;-59
2022/07/14 03:22:26;;;;;;;8.93;4.93;;;;;;;;;;3366790;42;20100;-56
2022/07/14 03:24:52;;;;;;;9.37;4.80;;;;;;;;;;3362751;42;20100;-58
2022/07/14 03:27:18;;;;;;;9.48;4.65;;;;;;;;;;3366788;42;20107;-58
2022/07/14 03:29:44;;;;;;;9.65;5.53;;;;;;;;;;3366719;42;20135;-58
2022/07/14 03:32:10;;;;;;;11.65;5.70;;;;;;;;;;3366391;42;20616;-58
2022/07/14 03:34:36;;;;;;;9.57;5.07;;;;;;;;;;3366649;42;20088;-58
2022/07/14 03:37:02;;;;;;;8.57;4.75;;;;;;;;;;3366819;42;20079;-56
2022/07/14 03:39:28;;;;;;;9.18;5.05;;;;;;;;;;3367034;42;20240;-64
2022/07/14 03:41:54;;;;;;;9.90;5.38;;;;;;;;;;3367100;42;20128;-57
2022/07/14 03:44:20;;;;;;;8.83;5.23;;;;;;;;;;3367236;42;20092;-55
2022/07/14 03:46:46;;;;;;;10.27;5.50;;;;;;;;;;3367105;42;20084;-59
2022/07/14 03:49:12;;;;;;;10.07;5.60;;;;;;;;;;3366773;42;20149;-59
2022/07/14 03:51:42;;;;;;;10.20;5.80;;;;;;;;;;3366928;42;20111;-58
2022/07/14 03:54:08;;;;;;;11.50;5.43;;;;;;;;;;3366902;42;20088;-59
2022/07/14 03:56:36;;;;;;;9.47;5.40;;;;;;;;;;3366930;42;20498;-59
2022/07/14 03:59:03;;;;;;;10.32;5.50;;;;;;;;;;3366186;42;20091;-59
2022/07/14 04:01:29;;;;;;;9.40;5.22;;;;;;;;;;3366930;42;20095;-59
2022/07/14 04:03:55;;;;;;;11.27;6.72;;;;;;;;;;3366628;42;20161;-59
2022/07/14 04:06:21;;;;;;;10.03;5.70;;;;;;;;;;3366673;42;20096;-59
2022/07/14 04:08:47;;;;;;;11.10;5.43;;;;;;;;;;3366491;42;20513;-59
2022/07/14 04:11:14;;;;;;;11.20;6.80;;;;;;;;;;3366634;42;20158;-59
2022/07/14 04:13:40;;;;;;;10.40;6.47;;;;;;;;;;3365989;42;20088;-58
2022/07/14 04:16:06;;;;;;;11.00;5.83;;;;;;;;;;3366280;42;20116;-56
2022/07/14 04:18:32;;;;;;;11.75;6.35;;;;;;;;;;3352496;42;20163;-57
2022/07/14 04:20:58;;;;;;;12.32;7.40;;;;;;;;;;3367984;42;20084;-58
2022/07/14 04:23:24;;;;;;;11.95;6.15;;;;;;;;;;3368248;42;20102;-57
2022/07/14 04:25:50;;;;;;;11.87;6.10;;;;;;;;;;3367977;42;20165;-57
2022/07/14 04:28:16;;;;;;;12.25;6.35;;;;;;;;;;3368156;42;20178;-57
2022/07/14 04:30:42;;;;;;;12.80;6.53;;;;;;;;;;3344492;42;20097;-53
2022/07/14 04:33:11;;;;;;;12.32;6.43;;;;;;;;;;3364402;42;20075;-56
2022/07/14 04:35:38;;;;;;;10.87;5.87;;;;;;;;;;3368295;42;20092;-56
2022/07/14 04:38:04;;;;;;;11.55;6.00;;;;;;;;;;3360445;42;20143;-56
2022/07/14 04:40:30;;;;;;;9.50;5.35;;;;;;;;;;3369973;42;20200;-59
2022/07/14 04:42:56;;;;;;;10.55;5.20;;;;;;;;;;3360422;42;20084;-57
2022/07/14 04:45:22;;;;;;;8.90;5.30;;;;;;;;;;3360492;42;20575;-57
2022/07/14 04:47:49;;;;;;;9.30;4.90;;;;;;;;;;3369561;42;20151;-58
2022/07/14 04:53:00;;;;;;;10.05;5.13;;;;;;;;;;3370086;42;20165;-55
2022/07/14 04:55:26;;;;;;;9.07;4.85;;;;;;;;;;3369307;42;20092;-58
2022/07/14 04:57:52;;;;;;;10.13;5.07;;;;;;;;;;3369046;42;20110;-57
2022/07/14 05:00:18;;;;;;;9.98;5.05;;;;;;;;;;3370331;42;20090;-59
2022/07/14 05:02:44;;;;;;;9.10;5.50;;;;;;;;;;3369645;42;20164;-53
2022/07/14 05:05:10;;;;;;;9.17;5.30;;;;;;;;;;3369987;42;20096;-57
2022/07/14 05:07:36;;;;;;;10.52;5.35;;;;;;;;;;3369876;42;20103;-58
2022/07/14 05:10:03;;;;;;;9.60;5.18;;;;;;;;;;3369803;42;20103;-58
2022/07/14 05:12:29;;;;;;;10.45;5.35;;;;;;;;;;3370166;42;20095;-55
2022/07/14 05:14:56;;;;;;;8.23;4.90;;;;;;;;;;3360399;42;20483;-61
2022/07/14 05:17:22;;;;;;;8.53;5.03;;;;;;;;;;3368923;42;20127;-55
2022/07/14 05:19:49;;;;;;;13.35;5.07;;;;;;;;;;3367931;42;20587;-57
2022/07/14 05:22:16;;;;;;;10.27;5.45;;;;;;;;;;3368462;42;20143;-58
2022/07/14 05:24:42;;;;;;;9.25;5.28;;;;;;;;;;3368458;42;20704;-56
2022/07/14 05:27:07;;;;;;;9.35;5.18;;;;;;;;;;3368175;42;20106;-58
2022/07/14 05:29:33;;;;;;;10.80;5.53;;;;;;;;;;3359420;42;20171;-58
2022/07/14 05:32:00;;;;;;;9.90;5.10;;;;;;;;;;3367765;42;20174;-53
2022/07/14 05:34:27;;;;;;;11.50;5.43;;;;;;;;;;3359434;42;20139;-55
2022/07/14 05:36:53;;;;;;;9.32;5.13;;;;;;;;;;3367945;42;20139;-55
2022/07/14 05:39:19;;;;;;;9.23;4.90;;;;;;;;;;3367960;42;20205;-59
2022/07/14 05:41:45;;;;;;;8.95;5.05;;;;;;;;;;3359030;42;20104;-57
2022/07/14 05:44:11;;;;;;;8.82;4.75;;;;;;;;;;3371112;42;20087;-57
2022/07/14 05:46:37;;;;;;;10.60;5.33;;;;;;;;;;3369154;42;20091;-55
2022/07/14 05:49:03;;;;;;;9.70;5.20;;;;;;;;;;3368360;42;20084;-56
2022/07/14 05:51:28;;;;;;;10.18;5.18;;;;;;;;;;3369272;42;20143;-57
2022/07/14 05:53:54;;;;;;;13.18;5.30;;;;;;;;;;3371743;42;20103;-58
2022/07/14 05:56:21;;;;;;;10.00;5.07;;;;;;;;;;3368987;42;20170;-55
2022/07/14 05:58:47;;;;;;;9.50;5.30;;;;;;;;;;3368621;42;20560;-55
2022/07/14 06:01:13;;;;;;;9.05;5.13;;;;;;;;;;3366413;42;20142;-57
2022/07/14 06:03:39;;;;;;;8.98;4.80;;;;;;;;;;3369272;42;20652;-59
2022/07/14 06:06:07;;;;;;;9.35;5.18;;;;;;;;;;3368481;42;20091;-55
2022/07/14 06:08:33;;;;;;;9.17;5.13;;;;;;;;;;3359666;42;20091;-56
2022/07/14 06:10:59;;;;;;;8.82;5.03;;;;;;;;;;3367987;42;20084;-57
2022/07/14 06:13:26;;;;;;;10.07;5.30;;;;;;;;;;3359228;42;20522;-55
2022/07/14 06:15:52;;;;;;;9.07;5.10;;;;;;;;;;3359829;42;20099;-56
2022/07/14 06:18:18;;;;;;;10.33;5.00;;;;;;;;;;3369671;42;20459;-56
2022/07/14 06:20:44;;;;;;;9.60;5.13;;;;;;;;;;3369570;42;20111;-58
2022/07/14 06:23:11;;;;;;;10.63;5.63;;;;;;;;;;3368958;42;20092;-57
2022/07/14 06:25:37;;;;;;;9.25;5.50;;;;;;;;;;3368393;42;20696;-55
2022/07/14 06:28:04;;;;;;;9.90;5.10;;;;;;;;;;3369203;42;20114;-54
2022/07/14 06:30:30;;;;;;;8.57;5.10;;;;;;;;;;3370007;42;20493;-54
2022/07/14 06:32:56;;;;;;;8.75;5.28;;;;;;;;;;3369861;42;20595;-57
2022/07/14 06:35:22;;;;;;;9.38;5.20;;;;;;;;;;3369517;42;20100;-57
2022/07/14 06:37:51;;;;;;;9.18;5.15;;;;;;;;;;3369220;42;20088;-56
2022/07/14 06:40:16;;;;;;;9.75;5.53;;;;;;;;;;3352509;42;20092;-55
2022/07/14 06:42:42;;;;;;;9.57;5.47;;;;;;;;;;3368682;42;20104;-56
2022/07/14 06:45:09;;;;;;;9.00;5.55;;;;;;;;;;3368416;42;20118;-56
2022/07/14 06:47:35;;;;;;;10.18;5.13;;;;;;;;;;3368511;42;20169;-56
2022/07/14 06:50:01;;;;;;;10.25;5.50;;;;;;;;;;3368059;42;20694;-56
2022/07/14 06:52:27;;;;;;;10.50;5.55;;;;;;;;;;3368655;42;20110;-56
2022/07/14 06:54:53;;;;;;;10.40;5.90;;;;;;;;;;3368300;42;20526;-57
2022/07/14 06:57:19;;;;;;;9.38;5.13;;;;;;;;;;3368739;42;20092;-57
2022/07/14 06:59:46;;;;;;;9.55;5.35;;;;;;;;;;3368803;42;20106;-52
2022/07/14 07:02:12;;;;;;;9.27;5.40;;;;;;;;;;3369950;42;20134;-54
2022/07/14 07:04:38;;;;;;;8.52;5.43;;;;;;;;;;3369284;42;20152;-50
2022/07/14 07:07:04;;;;;;;10.87;5.80;;;;;;;;;;3368319;42;20096;-55
2022/07/14 07:09:30;;;;;;;9.57;5.60;;;;;;;;;;3369252;42;20577;-52
2022/07/14 07:11:56;;;;;;;10.10;5.47;;;;;;;;;;3368770;42;20166;-55
2022/07/14 07:14:22;;;;;;;12.75;5.68;;;;;;;;;;3363336;42;20088;-53
2022/07/14 07:16:49;;;;;;;9.63;5.37;;;;;;;;;;3368733;42;20130;-54
2022/07/14 07:19:15;;;;;;;10.05;5.72;;;;;;;;;;3368053;42;20092;-54
2022/07/14 07:21:41;;;;;;;9.20;5.70;;;;;;;;;;3367747;42;20115;-55
2022/07/14 07:24:07;;;;;;;10.07;5.32;;;;;;;;;;3359153;42;20122;-54
2022/07/14 07:26:34;;;;;;;11.50;5.70;;;;;;;;;;3368226;42;20126;-55
2022/07/14 07:29:00;;;;;;;11.07;5.83;;;;;;;;;;3358195;42;20083;-59
2022/07/14 07:31:26;;;;;;;10.80;5.65;;;;;;;;;;3367906;42;20172;-55
2022/07/14 07:33:53;;;;;;;9.95;5.70;;;;;;;;;;3367317;42;20096;-58
2022/07/14 07:36:20;;;;;;;10.13;5.78;;;;;;;;;;3358988;42;20182;-57
2022/07/14 07:38:46;;;;;;;9.37;5.90;;;;;;;;;;3352528;42;20103;-55
2022/07/14 07:41:12;;;;;;;9.60;5.57;;;;;;;;;;3367426;42;20569;-55
2022/07/14 07:43:38;;;;;;;10.48;5.93;;;;;;;;;;3367877;42;20095;-56
2022/07/14 07:46:05;;;;;;;11.18;5.60;;;;;;;;;;3367506;42;20094;-58
2022/07/14 07:48:32;;;;;;;10.65;5.80;;;;;;;;;;3367318;42;20100;-57
2022/07/14 07:50:58;;;;;;;11.83;6.00;;;;;;;;;;3367194;42;20088;-54
2022/07/14 07:53:24;;;;;;;12.23;6.47;;;;;;;;;;3366106;42;20534;-58
2022/07/14 07:55:51;;;;;;;11.38;5.90;;;;;;;;;;3367425;42;20088;-57
2022/07/14 07:58:18;;;;;;;11.63;6.30;;;;;;;;;;3367284;42;20100;-56
2022/07/14 08:00:44;;;;;;;10.68;5.90;;;;;;;;;;3357686;42;20100;-55
2022/07/14 08:03:10;;;;;;;11.57;5.87;;;;;;;;;;3358159;42;20104;-59
2022/07/14 08:05:36;;;;;;;12.13;6.18;;;;;;;;;;3366976;42;20102;-56
2022/07/14 08:08:02;;;;;;;11.35;6.47;;;;;;;;;;3367066;42;20177;-56
2022/07/14 08:10:28;;;;;;;9.85;5.70;;;;;;;;;;3358839;42;20092;-57
2022/07/14 08:12:54;;;;;;;12.88;6.15;;;;;;;;;;3367603;42;20585;-58
2022/07/14 08:15:20;;;;;;;10.87;6.13;;;;;;;;;;3367705;42;20135;-57
2022/07/14 08:17:46;;;;;;;9.95;6.13;;;;;;;;;;3367043;42;20090;-58
2022/07/14 08:20:12;;;;;;;11.50;6.20;;;;;;;;;;3367254;42;20822;-58
2022/07/14 08:22:38;;;;;;;10.70;6.13;;;;;;;;;;3366848;42;20096;-54
2022/07/14 08:25:06;;;;;;;13.23;6.40;;;;;;;;;;3367000;42;20107;-60
2022/07/14 08:27:32;;;;;;;11.67;6.33;;;;;;;;;;3357989;42;20087;-56
2022/07/14 08:29:58;;;;;;;12.60;6.00;;;;;;;;;;3366456;42;20083;-57
2022/07/14 08:32:41;;;;;;;10.20;6.10;;;;;;;;;;3366418;42;20553;-56
2022/07/14 08:35:08;;;;;;;10.75;6.20;;;;;;;;;;3366427;42;20621;-58
2022/07/14 08:37:35;;;;;;;10.30;6.35;;;;;;;;;;3357747;42;20103;-64
2022/07/14 08:40:01;;;;;;;11.10;6.50;;;;;;;;;;3366327;42;20088;-59
2022/07/14 08:42:30;;;;;;;11.10;6.13;;;;;;;;;;3367592;42;20106;-59
2022/07/14 08:44:56;;;;;;;10.73;6.32;;;;;;;;;;3353241;42;20144;-59
2022/07/14 08:47:23;;;;;;;11.68;6.07;;;;;;;;;;3351986;42;20084;-58
2022/07/14 08:49:49;;;;;;;13.32;6.78;;;;;;;;;;3366003;42;20076;-57
2022/07/14 08:52:18;;;;;;;11.63;6.50;;;;;;;;;;3366462;42;20087;-59
2022/07/14 08:54:47;;;;;;;14.95;6.53;;;;;;;;;;3366470;42;20096;-58
2022/07/14 08:57:13;;;;;;;12.45;6.90;;;;;;;;;;3367357;42;20095;-59
2022/07/14 08:59:40;;;;;;;11.90;6.70;;;;;;;;;;3369280;42;20092;-59
2022/07/14 09:02:06;;;;;;;12.37;6.57;;;;;;;;;;3366522;42;20556;-58
2022/07/14 09:04:32;;;;;;;11.77;6.70;;;;;;;;;;3367876;42;20173;-58
2022/07/14 09:06:58;;;;;;;11.68;7.10;;;;;;;;;;3368286;42;20096;-59
2022/07/14 09:09:34;;;;;;;12.43;6.80;;;;;;;;;;3359076;42;20095;-60
2022/07/14 09:12:04;;;;;;;10.50;6.65;;;;;;;;;;3368063;42;20107;-58
2022/07/14 09:15:44;;;;;;;11.97;6.77;;;;;;;;;;3368267;42;20099;-59
2022/07/14 09:17:18;;;;;;;10.65;6.13;;;;;;;;;;3368049;42;20913;-53
2022/07/14 09:20:25;;;;;;;11.68;6.30;;;;;;;;;;3366420;42;20099;-57
2022/07/14 09:22:58;;;;;;;10.93;6.50;;;;;;;;;;3322702;42;20153;-55
2022/07/14 09:25:25;;;;;;;11.82;6.53;;;;;;;;;;3324629;42;20098;-59
2022/07/14 09:27:51;;;;;;;11.77;6.60;;;;;;;;;;3350218;42;20106;-58
2022/07/14 09:30:17;;;;;;;11.50;6.35;;;;;;;;;;3368223;42;20135;-57
2022/07/14 09:32:58;;;;;;;11.93;6.30;;;;;;;;;;3359352;42;20097;-57
2022/07/14 09:35:26;;;;;;;9.80;6.47;;;;;;;;;;3367798;42;20092;-59
2022/07/14 09:37:53;;;;;;;11.07;6.43;;;;;;;;;;3367959;42;20184;-58
2022/07/14 09:40:21;;;;;;;14.27;6.40;;;;;;;;;;3359348;42;20181;-55
2022/07/14 09:42:58;;;;;;;11.68;6.45;;;;;;;;;;3369221;42;20104;-59
2022/07/14 09:45:29;;;;;;;14.35;6.80;;;;;;;;;;3368104;42;20096;-59
2022/07/14 09:48:07;;;;;;;13.82;6.72;;;;;;;;;;3368564;42;20091;-63
2022/07/14 09:50:37;;;;;;;12.18;6.60;;;;;;;;;;3368718;42;20091;-59
2022/07/14 09:53:19;;;;;;;11.47;6.73;;;;;;;;;;3368555;42;20088;-58
2022/07/14 09:55:56;;;;;;;10.95;6.72;;;;;;;;;;3355995;42;20188;-58
2022/07/14 09:58:24;;;;;;;11.85;6.85;;;;;;;;;;3367658;42;20087;-58
2022/07/14 10:01:04;;;;;;;11.38;6.57;;;;;;;;;;3352873;42;20589;-57
2022/07/14 10:03:31;;;;;;;15.48;6.85;;;;;;;;;;3368191;42;20122;-57
2022/07/14 10:05:58;;;;;;;17.57;8.37;;;;;;;;;;3352564;42;20140;-57
2022/07/14 10:08:27;;;;;;;11.52;7.15;;;;;;;;;;3365794;42;20080;-59
2022/07/14 10:10:53;;;;;;;11.23;6.70;;;;;;;;;;3363656;42;20088;-59
2022/07/14 10:13:19;;;;;;;11.88;6.80;;;;;;;;;;3367460;42;20173;-56
2022/07/14 10:15:50;;;;;;;11.38;6.85;;;;;;;;;;3366954;42;20138;-58
2022/07/14 10:18:17;;;;;;;13.10;7.37;;;;;;;;;;3366793;42;20088;-55
2022/07/14 10:20:54;;;;;;;11.23;6.75;;;;;;;;;;3358283;42;20110;-59
2022/07/14 10:23:21;;;;;;;11.65;6.85;;;;;;;;;;3367683;42;20542;-58
2022/07/14 10:25:51;;;;;;;13.25;6.80;;;;;;;;;;3367045;42;20088;-59
2022/07/14 10:28:17;;;;;;;12.18;6.75;;;;;;;;;;3357060;42;20487;-59
2022/07/14 10:31:01;;;;;;;11.03;6.90;;;;;;;;;;3356551;42;20574;-59
2022/07/14 10:33:37;;;;;;;11.77;6.72;;;;;;;;;;3364606;42;20087;-59
2022/07/14 10:36:16;;;;;;;12.38;7.45;;;;;;;;;;3350429;42;20144;-59
2022/07/14 10:39:00;;;;;;;11.52;7.18;;;;;;;;;;3356921;42;20076;-59
2022/07/14 10:41:54;;;;;;;11.27;6.95;;;;;;;;;;3368124;42;20580;-59
2022/07/14 10:44:22;;;;;;;11.83;6.93;;;;;;;;;;3363100;42;20094;-59
2022/07/14 10:46:51;;;;;;;13.25;7.78;;;;;;;;;;3353730;42;20161;-59
2022/07/14 10:49:17;;;;;;;15.00;7.80;;;;;;;;;;3366757;42;20091;-58
2022/07/14 10:51:45;;;;;;;12.77;7.80;;;;;;;;;;3366948;42;20150;-59
2022/07/14 10:54:32;;;;;;;11.85;7.40;;;;;;;;;;3367043;42;20740;-59
2022/07/14 10:57:15;;;;;;;13.23;7.93;;;;;;;;;;3358140;42;20290;-57
2022/07/14 10:59:43;;;;;;;11.98;7.38;;;;;;;;;;3362250;42;20158;-57
2022/07/14 11:02:14;;;;;;;11.20;7.20;;;;;;;;;;3367053;42;20569;-58
2022/07/14 11:04:59;;;;;;;12.20;7.07;;;;;;;;;;3366995;42;20143;-59
2022/07/14 11:07:38;;;;;;;13.48;7.10;;;;;;;;;;3366772;42;20207;-57
2022/07/14 11:10:19;;;;;;;14.63;6.93;;;;;;;;;;3366886;42;20088;-61
2022/07/14 11:13:03;;;;;;;12.43;7.22;;;;;;;;;;3367776;42;20099;-58
2022/07/14 11:15:40;;;;;;;12.43;6.93;;;;;;;;;;3363453;42;20193;-58
2022/07/14 11:18:20;;;;;;;12.30;6.68;;;;;;;;;;3366905;42;20173;-59
2022/07/14 11:20:50;;;;;;;13.35;7.10;;;;;;;;;;3366985;42;20157;-59
2022/07/14 11:23:21;;;;;;;11.13;6.33;;;;;;;;;;3352439;42;20099;-58
2022/07/14 11:25:51;;;;;;;10.15;6.70;;;;;;;;;;3354610;42;20163;-59
2022/07/14 11:28:36;;;;;;;11.00;6.78;;;;;;;;;;3359509;42;20107;-58
2022/07/14 11:31:18;;;;;;;13.20;6.40;;;;;;;;;;3367583;42;20088;-58
2022/07/14 11:36:33;;;;;;;11.53;5.90;;;;;;;;;;3355880;42;20103;-58
2022/07/14 11:39:18;;;;;;;13.05;6.90;;;;;;;;;;3366684;42;20095;-59
2022/07/14 11:41:45;;;;;;;12.70;6.57;;;;;;;;;;3367972;42;20100;-59
2022/07/14 11:44:35;;;;;;;10.73;6.20;;;;;;;;;;3367206;42;20092;-59
2022/07/14 11:47:08;;;;;;;10.98;6.13;;;;;;;;;;3363244;42;20131;-60
2022/07/14 11:49:37;;;;;;;14.70;6.30;;;;;;;;;;3367090;42;20185;-58
2022/07/14 11:52:05;;;;;;;10.40;5.85;;;;;;;;;;3367077;42;20096;-56
2022/07/14 11:54:31;;;;;;;11.50;6.28;;;;;;;;;;3366654;42;20094;-58
2022/07/14 11:57:05;;;;;;;12.30;6.32;;;;;;;;;;3367549;42;20099;-59
2022/07/14 11:59:32;;;;;;;13.15;6.10;;;;;;;;;;3366745;42;20096;-57
2022/07/14 12:02:15;;;;;;;12.47;6.70;;;;;;;;;;3359245;42;20146;-58
2022/07/14 12:05:00;;;;;;;10.85;5.80;;;;;;;;;;3367323;42;20088;-59
2022/07/14 12:07:47;;;;;;;12.98;5.65;;;;;;;;;;3362431;42;20096;-57
2022/07/14 12:10:14;;;;;;;11.63;5.93;;;;;;;;;;3367209;42;20860;-60
2022/07/14 12:12:47;;;;;;;15.45;5.80;;;;;;;;;;3367031;42;20489;-58
2022/07/14 12:15:23;;;;;;;10.47;5.63;;;;;;;;;;3354827;42;20162;-58
2022/07/14 12:17:51;;;;;;;10.20;5.80;;;;;;;;;;3356539;42;20567;-58
2022/07/14 12:20:17;;;;;;;11.80;5.93;;;;;;;;;;3366716;42;20170;-57
2022/07/14 12:22:44;;;;;;;9.38;5.50;;;;;;;;;;3357748;42;20554;-58
2022/07/14 12:25:33;;;;;;;13.00;5.90;;;;;;;;;;3357500;42;20147;-58
2022/07/14 12:27:59;;;;;;;9.80;5.50;;;;;;;;;;3366473;42;20088;-57
2022/07/14 12:30:42;;;;;;;10.43;5.57;;;;;;;;;;3366451;42;20084;-56
2022/07/14 12:33:09;;;;;;;9.90;5.90;;;;;;;;;;3366772;42;20127;-57
2022/07/14 12:35:35;;;;;;;11.30;5.88;;;;;;;;;;3366412;42;20566;-58
2022/07/14 12:38:01;;;;;;;9.20;5.30;;;;;;;;;;3350949;42;20103;-58
2022/07/14 12:40:27;;;;;;;10.87;5.87;;;;;;;;;;3368750;42;20088;-57
2022/07/14 12:42:53;;;;;;;9.60;5.72;;;;;;;;;;3353121;42;20096;-59
2022/07/14 12:45:19;;;;;;;11.85;6.10;;;;;;;;;;3349397;42;20092;-58
2022/07/14 12:47:49;;;;;;;12.38;6.03;;;;;;;;;;3365156;42;20092;-59
2022/07/14 12:50:20;;;;;;;12.97;6.00;;;;;;;;;;3353932;42;20551;-58
2022/07/14 12:52:57;;;;;;;11.57;5.88;;;;;;;;;;3368346;42;20156;-59
2022/07/14 12:55:34;;;;;;;11.85;5.90;;;;;;;;;;3368389;42;20104;-59
2022/07/14 12:58:07;;;;;;;9.95;5.75;;;;;;;;;;3355912;42;20096;-58
2022/07/14 13:00:33;;;;;;;13.38;6.43;;;;;;;;;;3368432;42;20088;-59
2022/07/14 13:03:13;;;;;;;14.53;6.40;;;;;;;;;;3368491;42;20588;-57
2022/07/14 13:05:46;;;;;;;13.27;6.80;;;;;;;;;;3368374;42;20083;-59
2022/07/14 13:08:37;;;;;;;11.07;6.13;;;;;;;;;;3354374;42;20096;-59
2022/07/14 13:11:07;;;;;;;15.20;6.68;;;;;;;;;;3368082;42;20147;-56
2022/07/14 13:13:36;;;;;;;12.25;6.85;;;;;;;;;;3368608;42;20115;-59
2022/07/14 13:16:30;;;;;;;11.50;6.90;;;;;;;;;;3364831;42;20527;-59
2022/07/14 13:19:09;;;;;;;15.90;7.07;;;;;;;;;;3366492;42;20100;-60
2022/07/14 13:22:04;;;;;;;11.80;6.75;;;;;;;;;;3357945;42;20107;-58
2022/07/14 13:24:51;;;;;;;13.15;7.03;;;;;;;;;;3341598;42;20510;-59
2022/07/14 13:27:18;;;;;;;11.52;6.93;;;;;;;;;;3368527;42;20095;-58
2022/07/14 13:29:47;;;;;;;15.17;7.00;;;;;;;;;;3368229;42;20113;-58
2022/07/14 13:32:13;;;;;;;13.60;7.97;;;;;;;;;;3368478;42;20091;-58
2022/07/14 13:34:41;;;;;;;12.60;7.47;;;;;;;;;;3368337;42;20095;-59
2022/07/14 13:37:07;;;;;;;14.98;7.68;;;;;;;;;;3367306;42;20605;-60
2022/07/14 13:39:34;;;;;;;14.18;7.90;;;;;;;;;;3359899;42;20102;-59
2022/07/14 13:42:00;;;;;;;12.83;7.70;;;;;;;;;;3368286;42;20091;-58
2022/07/14 13:44:26;;;;;;;12.02;7.38;;;;;;;;;;3367494;42;20099;-58
2022/07/14 13:46:52;;;;;;;13.25;8.13;;;;;;;;;;3367732;42;20107;-58
2022/07/14 13:49:18;;;;;;;14.77;7.88;;;;;;;;;;3367102;42;20156;-59
2022/07/14 13:54:29;;;;;;;12.80;7.23;;;;;;;;;;3364301;42;20099;-59
2022/07/14 13:56:55;;;;;;;12.23;7.28;;;;;;;;;;3367557;42;20546;-59
2022/07/14 13:59:21;;;;;;;13.77;7.53;;;;;;;;;;3367558;42;20168;-59
2022/07/14 14:01:47;;;;;;;15.50;7.50;;;;;;;;;;3355249;42;20120;-57
2022/07/14 14:04:14;;;;;;;13.27;7.18;;;;;;;;;;3357485;42;20176;-59
2022/07/14 14:06:41;;;;;;;14.23;7.37;;;;;;;;;;3367745;42;20098;-59
2022/07/14 14:09:08;;;;;;;12.57;7.50;;;;;;;;;;3353523;42;20140;-59
2022/07/14 14:11:34;;;;;;;13.50;7.10;;;;;;;;;;3367589;42;20096;-59
2022/07/14 14:14:00;;;;;;;14.75;7.70;;;;;;;;;;3368041;42;20095;-59
2022/07/14 14:16:26;;;;;;;13.70;7.38;;;;;;;;;;3358803;42;20099;-60
2022/07/14 14:18:53;;;;;;;14.53;8.20;;;;;;;;;;3367366;42;20088;-58
2022/07/14 14:21:19;;;;;;;16.58;7.50;;;;;;;;;;3367582;42;20490;-58
2022/07/14 14:23:45;;;;;;;13.02;7.47;;;;;;;;;;3367689;42;20569;-57
2022/07/14 14:26:12;;;;;;;14.38;7.10;;;;;;;;;;3367366;42;20088;-57
2022/07/14 14:28:39;;;;;;;12.90;7.40;;;;;;;;;;3357649;42;20092;-58
2022/07/14 14:31:05;;;;;;;12.50;7.00;;;;;;;;;;3367428;42;20083;-55
2022/07/14 14:33:31;;;;;;;12.70;6.70;;;;;;;;;;3367185;42;20612;-59
2022/07/14 14:35:58;;;;;;;12.30;6.72;;;;;;;;;;3367542;42;20154;-59
2022/07/14 14:38:24;;;;;;;12.05;6.40;;;;;;;;;;3367361;42;20550;-58
2022/07/14 14:40:50;;;;;;;14.15;6.57;;;;;;;;;;3358392;42;20561;-58
2022/07/14 14:43:17;;;;;;;13.27;6.70;;;;;;;;;;3366557;42;20479;-58
2022/07/14 14:45:45;;;;;;;11.48;6.63;;;;;;;;;;3358563;42;20199;-59
2022/07/14 14:48:11;;;;;;;12.88;6.30;;;;;;;;;;3358677;42;20099;-58
2022/07/14 14:50:37;;;;;;;11.25;6.45;;;;;;;;;;3366854;42;20088;-59
2022/07/14 14:53:03;;;;;;;13.95;6.35;;;;;;;;;;3367059;42;20087;-57
2022/07/14 14:55:29;;;;;;;14.00;6.70;;;;;;;;;;3366948;42;20100;-56
2022/07/14 14:57:55;;;;;;;10.73;6.43;;;;;;;;;;3358223;42;20181;-58